createdAt,value
2019-05-29T00:00:23.475Z,1013.20
2019-05-29T00:01:23.159Z,1013.17
2019-05-29T00:02:23.147Z,1013.19
2019-05-29T00:03:23.154Z,1013.16
2019-05-29T00:04:23.131Z,1013.19
2019-05-29T00:05:23.144Z,1013.25
2019-05-29T00:06:23.103Z,1013.25
2019-05-29T00:07:23.121Z,1013.24
2019-05-29T00:08:23.083Z,1013.23
2019-05-29T00:09:23.085Z,1013.31
2019-05-29T00:10:23.083Z,1013.32
2019-05-29T00:11:23.062Z,1013.28
2019-05-29T00:12:23.040Z,1013.26
2019-05-29T00:13:23.029Z,1013.33
2019-05-29T00:14:27.475Z,1013.30
2019-05-29T00:15:23.028Z,1013.29
2019-05-29T00:16:23.007Z,1013.32
2019-05-29T00:17:22.988Z,1013.35
2019-05-29T00:18:22.983Z,1013.34
2019-05-29T00:19:22.965Z,1013.31
2019-05-29T00:20:22.984Z,1013.36
2019-05-29T00:21:22.947Z,1013.40
2019-05-29T00:22:22.935Z,1013.35
2019-05-29T00:23:22.927Z,1013.36
2019-05-29T00:24:23.271Z,1013.33
2019-05-29T00:25:22.927Z,1013.38
2019-05-29T00:26:22.893Z,1013.41
2019-05-29T00:27:22.898Z,1013.41
2019-05-29T00:28:22.873Z,1013.42
2019-05-29T00:29:22.857Z,1013.42
2019-05-29T00:30:22.881Z,1013.53
2019-05-29T00:31:22.836Z,1013.44
2019-05-29T00:32:22.831Z,1013.50
2019-05-29T00:33:22.822Z,1013.48
2019-05-29T00:34:22.833Z,1013.49
2019-05-29T00:35:22.835Z,1013.53
2019-05-29T00:36:22.822Z,1013.52
2019-05-29T00:37:22.787Z,1013.48
2019-05-29T00:38:22.773Z,1013.51
2019-05-29T00:39:22.756Z,1013.50
2019-05-29T00:40:22.770Z,1013.54
2019-05-29T00:41:22.752Z,1013.50
2019-05-29T00:42:22.753Z,1013.57
2019-05-29T00:43:22.733Z,1013.56
2019-05-29T00:44:33.999Z,1013.57
2019-05-29T00:45:23.688Z,1013.59
2019-05-29T00:46:22.743Z,1013.62
2019-05-29T00:47:22.674Z,1013.65
2019-05-29T00:48:22.676Z,1013.62
2019-05-29T00:49:22.657Z,1013.60
2019-05-29T00:50:22.638Z,1013.67
2019-05-29T00:51:22.643Z,1013.61
2019-05-29T00:52:22.615Z,1013.65
2019-05-29T00:53:22.606Z,1013.62
2019-05-29T00:54:22.595Z,1013.66
2019-05-29T00:55:22.586Z,1013.65
2019-05-29T00:56:22.613Z,1013.60
2019-05-29T00:57:22.561Z,1013.63
2019-05-29T00:58:22.551Z,1013.62
2019-05-29T00:59:22.543Z,1013.60
2019-05-29T01:00:22.530Z,1013.69
2019-05-29T01:01:22.544Z,1013.68
2019-05-29T01:02:22.540Z,1013.67
2019-05-29T01:03:22.499Z,1013.71
2019-05-29T01:04:22.490Z,1013.70
2019-05-29T01:05:22.476Z,1013.76
2019-05-29T01:06:22.478Z,1013.70
2019-05-29T01:07:22.483Z,1013.75
2019-05-29T01:08:22.444Z,1013.73
2019-05-29T01:09:22.444Z,1013.76
2019-05-29T01:10:22.429Z,1013.77
2019-05-29T01:11:22.410Z,1013.75
2019-05-29T01:12:22.423Z,1013.74
2019-05-29T01:13:22.397Z,1013.76
2019-05-29T01:14:22.381Z,1013.82
2019-05-29T01:15:22.373Z,1013.84
2019-05-29T01:16:22.370Z,1013.81
2019-05-29T01:17:22.367Z,1013.85
2019-05-29T01:18:22.488Z,1013.86
2019-05-29T01:19:22.339Z,1013.85
2019-05-29T01:20:22.316Z,1013.92
2019-05-29T01:21:22.307Z,1013.90
2019-05-29T01:22:22.492Z,1013.90
2019-05-29T01:23:22.494Z,1013.90
2019-05-29T01:24:22.728Z,1013.91
2019-05-29T01:25:22.713Z,1013.96
2019-05-29T01:26:22.862Z,1013.94
2019-05-29T01:27:23.144Z,1013.95
2019-05-29T01:28:23.090Z,1013.96
2019-05-29T01:29:23.425Z,1013.96
2019-05-29T01:30:23.319Z,1013.99
2019-05-29T01:31:23.511Z,1014.00
2019-05-29T01:32:22.204Z,1014.02
2019-05-29T01:33:24.570Z,1014.00
2019-05-29T01:34:22.190Z,1014.02
2019-05-29T01:35:22.218Z,1013.97
2019-05-29T01:36:22.167Z,1014.01
2019-05-29T01:37:22.355Z,1014.04
2019-05-29T01:38:23.394Z,1014.01
2019-05-29T01:39:23.401Z,1014.03
2019-05-29T01:40:27.507Z,1014.04
2019-05-29T01:41:23.563Z,1014.05
2019-05-29T01:42:22.091Z,1014.04
2019-05-29T01:43:22.121Z,1014.09
2019-05-29T01:44:22.077Z,1014.10
2019-05-29T01:45:22.053Z,1014.12
2019-05-29T01:46:22.085Z,1014.12
2019-05-29T01:47:22.031Z,1014.12
2019-05-29T01:48:22.020Z,1014.15
2019-05-29T01:49:22.061Z,1014.20
2019-05-29T01:50:21.997Z,1014.22
2019-05-29T01:51:21.998Z,1014.20
2019-05-29T01:52:22.026Z,1014.21
2019-05-29T01:53:21.966Z,1014.26
2019-05-29T01:54:21.982Z,1014.32
2019-05-29T01:55:21.946Z,1014.31
2019-05-29T01:56:21.998Z,1014.30
2019-05-29T01:57:21.933Z,1014.28
2019-05-29T01:58:22.052Z,1014.32
2019-05-29T01:59:21.960Z,1014.28
2019-05-29T02:00:22.051Z,1014.29
2019-05-29T02:01:22.010Z,1014.30
2019-05-29T02:02:22.035Z,1014.30
2019-05-29T02:03:22.019Z,1014.29
2019-05-29T02:04:22.018Z,1014.31
2019-05-29T02:05:22.070Z,1014.35
2019-05-29T02:06:21.984Z,1014.38
2019-05-29T02:07:22.436Z,1014.39
2019-05-29T02:08:22.147Z,1014.43
2019-05-29T02:09:22.151Z,1014.42
2019-05-29T02:10:22.226Z,1014.39
2019-05-29T02:11:21.779Z,1014.43
2019-05-29T02:12:22.297Z,1014.46
2019-05-29T02:13:21.758Z,1014.50
2019-05-29T02:14:22.709Z,1014.43
2019-05-29T02:15:30.143Z,1014.42
2019-05-29T02:16:22.743Z,1014.47
2019-05-29T02:17:21.830Z,1014.45
2019-05-29T02:18:22.905Z,1014.44
2019-05-29T02:19:21.947Z,1014.49
2019-05-29T02:20:22.816Z,1014.47
2019-05-29T02:21:22.325Z,1014.54
2019-05-29T02:22:21.684Z,1014.56
2019-05-29T02:23:22.098Z,1014.52
2019-05-29T02:24:21.641Z,1014.61
2019-05-29T02:25:22.330Z,1014.61
2019-05-29T02:26:22.420Z,1014.64
2019-05-29T02:27:21.615Z,1014.63
2019-05-29T02:28:22.600Z,1014.64
2019-05-29T02:29:22.897Z,1014.63
2019-05-29T02:30:23.624Z,1014.67
2019-05-29T02:31:22.430Z,1014.67
2019-05-29T02:32:21.557Z,1014.68
2019-05-29T02:33:22.015Z,1014.65
2019-05-29T02:34:22.534Z,1014.71
2019-05-29T02:35:22.598Z,1014.72
2019-05-29T02:36:22.358Z,1014.77
2019-05-29T02:37:22.256Z,1014.72
2019-05-29T02:38:23.000Z,1014.72
2019-05-29T02:39:22.919Z,1014.76
2019-05-29T02:40:23.526Z,1014.74
2019-05-29T02:41:23.516Z,1014.76
2019-05-29T02:42:22.676Z,1014.73
2019-05-29T02:43:23.392Z,1014.78
2019-05-29T02:44:23.329Z,1014.78
2019-05-29T02:45:21.811Z,1014.78
2019-05-29T02:46:21.773Z,1014.83
2019-05-29T02:47:21.725Z,1014.81
2019-05-29T02:48:23.039Z,1014.81
2019-05-29T02:49:21.627Z,1014.86
2019-05-29T02:50:22.171Z,1014.83
2019-05-29T02:51:22.080Z,1014.87
2019-05-29T02:52:21.949Z,1014.86
2019-05-29T02:53:22.244Z,1014.86
2019-05-29T02:54:22.561Z,1014.87
2019-05-29T02:55:22.582Z,1014.86
2019-05-29T02:56:22.975Z,1014.88
2019-05-29T02:57:22.831Z,1014.87
2019-05-29T02:58:22.018Z,1014.89
2019-05-29T02:59:22.860Z,1014.88
2019-05-29T03:00:21.267Z,1014.87
2019-05-29T03:01:21.610Z,1014.89
2019-05-29T03:02:21.576Z,1014.89
2019-05-29T03:03:21.616Z,1014.81
2019-05-29T03:04:21.699Z,1014.91
2019-05-29T03:05:21.866Z,1014.84
2019-05-29T03:06:22.279Z,1014.85
2019-05-29T03:07:22.279Z,1014.85
2019-05-29T03:08:22.244Z,1014.89
2019-05-29T03:09:22.693Z,1014.90
2019-05-29T03:10:22.473Z,1014.84
2019-05-29T03:11:22.894Z,1014.91
2019-05-29T03:12:22.755Z,1014.89
2019-05-29T03:13:21.125Z,1014.83
2019-05-29T03:14:21.149Z,1014.88
2019-05-29T03:15:21.104Z,1014.95
2019-05-29T03:16:21.110Z,1014.94
2019-05-29T03:17:21.079Z,1014.95
2019-05-29T03:18:21.072Z,1014.98
2019-05-29T03:19:21.062Z,1014.97
2019-05-29T03:20:21.045Z,1014.97
2019-05-29T03:21:21.062Z,1015.01
2019-05-29T03:22:21.044Z,1014.99
2019-05-29T03:23:21.067Z,1015.02
2019-05-29T03:24:21.021Z,1015.05
2019-05-29T03:25:21.014Z,1015.00
2019-05-29T03:26:24.628Z,1015.05
2019-05-29T03:27:22.000Z,1015.06
2019-05-29T03:28:20.961Z,1015.06
2019-05-29T03:29:20.954Z,1015.11
2019-05-29T03:30:20.979Z,1015.09
2019-05-29T03:31:20.939Z,1015.17
2019-05-29T03:32:20.951Z,1015.18
2019-05-29T03:33:20.906Z,1015.20
2019-05-29T03:34:20.952Z,1015.20
2019-05-29T03:35:20.895Z,1015.26
2019-05-29T03:36:20.890Z,1015.22
2019-05-29T03:37:20.883Z,1015.31
2019-05-29T03:38:20.854Z,1015.35
2019-05-29T03:39:20.846Z,1015.33
2019-05-29T03:40:20.864Z,1015.36
2019-05-29T03:41:20.821Z,1015.44
2019-05-29T03:42:20.859Z,1015.41
2019-05-29T03:43:20.815Z,1015.35
2019-05-29T03:44:20.792Z,1015.37
2019-05-29T03:45:20.823Z,1015.39
2019-05-29T03:46:31.705Z,1015.42
2019-05-29T03:47:21.798Z,1015.44
2019-05-29T03:48:20.750Z,1015.40
2019-05-29T03:49:20.761Z,1015.41
2019-05-29T03:50:20.737Z,1015.44
2019-05-29T03:51:20.727Z,1015.40
2019-05-29T03:52:20.709Z,1015.42
2019-05-29T03:53:20.719Z,1015.47
2019-05-29T03:54:20.709Z,1015.45
2019-05-29T03:55:20.676Z,1015.48
2019-05-29T03:56:20.665Z,1015.44
2019-05-29T03:57:20.654Z,1015.49
2019-05-29T03:58:20.670Z,1015.44
2019-05-29T03:59:20.636Z,1015.45
2019-05-29T04:00:20.625Z,1015.47
2019-05-29T04:01:20.624Z,1015.44
2019-05-29T04:02:20.635Z,1015.46
2019-05-29T04:03:20.642Z,1015.47
2019-05-29T04:04:20.636Z,1015.44
2019-05-29T04:05:20.571Z,1015.46
2019-05-29T04:06:20.577Z,1015.51
2019-05-29T04:07:20.560Z,1015.42
2019-05-29T04:08:20.541Z,1015.53
2019-05-29T04:09:20.553Z,1015.46
2019-05-29T04:10:20.524Z,1015.58
2019-05-29T04:11:20.509Z,1015.49
2019-05-29T04:12:20.546Z,1015.53
2019-05-29T04:13:20.505Z,1015.55
2019-05-29T04:14:20.497Z,1015.57
2019-05-29T04:15:20.467Z,1015.60
2019-05-29T04:16:20.452Z,1015.57
2019-05-29T04:17:20.444Z,1015.55
2019-05-29T04:18:20.436Z,1015.61
2019-05-29T04:19:20.447Z,1015.60
2019-05-29T04:20:20.425Z,1015.65
2019-05-29T04:21:20.498Z,1015.66
2019-05-29T04:22:20.397Z,1015.69
2019-05-29T04:23:20.385Z,1015.71
2019-05-29T04:24:20.397Z,1015.72
2019-05-29T04:25:20.366Z,1015.72
2019-05-29T04:26:20.346Z,1015.70
2019-05-29T04:27:20.353Z,1015.72
2019-05-29T04:28:20.381Z,1015.78
2019-05-29T04:29:20.355Z,1015.81
2019-05-29T04:30:20.317Z,1015.84
2019-05-29T04:31:20.294Z,1015.87
2019-05-29T04:32:20.296Z,1015.94
2019-05-29T04:33:20.285Z,1015.90
2019-05-29T04:34:20.281Z,1015.92
2019-05-29T04:35:20.360Z,1015.96
2019-05-29T04:36:20.346Z,1015.95
2019-05-29T04:37:28.408Z,1015.99
2019-05-29T04:38:20.357Z,1016.01
2019-05-29T04:39:28.391Z,1016.07
2019-05-29T04:40:20.290Z,1016.03
2019-05-29T04:41:20.238Z,1016.11
2019-05-29T04:43:37.649Z,1016.10
2019-05-29T04:44:38.209Z,1016.08
2019-05-29T04:45:39.225Z,1016.15
2019-05-29T04:46:43.695Z,1016.16
2019-05-29T04:47:37.343Z,1016.21
2019-05-29T04:48:44.654Z,1016.18
2019-05-29T04:49:37.932Z,1016.21
2019-05-29T04:50:40.656Z,1016.25
2019-05-29T04:51:39.651Z,1016.19
2019-05-29T04:52:40.323Z,1016.23
2019-05-29T04:53:38.233Z,1016.22
2019-05-29T04:54:37.651Z,1016.23
2019-05-29T04:55:36.896Z,1016.25
2019-05-29T04:56:36.903Z,1016.31
2019-05-29T04:57:37.099Z,1016.31
2019-05-29T04:58:36.947Z,1016.28
2019-05-29T04:59:37.015Z,1016.33
2019-05-29T05:00:37.151Z,1016.35
2019-05-29T05:01:35.791Z,1016.33
2019-05-29T05:02:35.805Z,1016.38
2019-05-29T05:03:35.768Z,1016.30
2019-05-29T05:04:35.774Z,1016.34
2019-05-29T05:05:35.776Z,1016.38
2019-05-29T05:06:35.743Z,1016.40
2019-05-29T05:07:35.728Z,1016.40
2019-05-29T05:08:35.711Z,1016.38
2019-05-29T05:09:35.720Z,1016.41
2019-05-29T05:10:35.761Z,1016.41
2019-05-29T05:11:35.683Z,1016.42
2019-05-29T05:12:35.767Z,1016.47
2019-05-29T05:13:35.657Z,1016.39
2019-05-29T05:14:35.723Z,1016.46
2019-05-29T05:15:35.991Z,1016.47
2019-05-29T05:16:35.807Z,1016.48
2019-05-29T05:17:36.064Z,1016.50
2019-05-29T05:18:35.841Z,1016.44
2019-05-29T05:19:35.979Z,1016.48
2019-05-29T05:20:36.247Z,1016.46
2019-05-29T05:21:43.110Z,1016.50
2019-05-29T05:22:36.389Z,1016.53
2019-05-29T05:23:36.153Z,1016.52
2019-05-29T05:24:36.385Z,1016.56
2019-05-29T05:25:36.342Z,1016.56
2019-05-29T05:26:36.275Z,1016.58
2019-05-29T05:27:36.469Z,1016.58
2019-05-29T05:28:36.479Z,1016.59
2019-05-29T05:29:36.283Z,1016.64
2019-05-29T05:30:36.427Z,1016.62
2019-05-29T05:31:36.478Z,1016.58
2019-05-29T05:32:36.759Z,1016.60
2019-05-29T05:33:36.638Z,1016.66
2019-05-29T05:34:36.798Z,1016.63
2019-05-29T05:35:36.736Z,1016.64
2019-05-29T05:36:36.699Z,1016.63
2019-05-29T05:37:36.562Z,1016.61
2019-05-29T05:38:35.391Z,1016.65
2019-05-29T05:39:35.380Z,1016.64
2019-05-29T05:40:38.542Z,1016.65
2019-05-29T05:41:35.356Z,1016.65
2019-05-29T05:42:35.367Z,1016.64
2019-05-29T05:43:35.333Z,1016.70
2019-05-29T05:44:35.325Z,1016.67
2019-05-29T05:45:35.335Z,1016.70
2019-05-29T05:46:35.314Z,1016.71
2019-05-29T05:47:50.350Z,1016.72
2019-05-29T05:48:37.130Z,1016.72
2019-05-29T05:49:35.447Z,1016.77
2019-05-29T05:50:35.291Z,1016.76
2019-05-29T05:51:38.338Z,1016.77
2019-05-29T05:52:37.404Z,1016.79
2019-05-29T05:53:35.419Z,1016.78
2019-05-29T05:54:35.386Z,1016.82
2019-05-29T05:55:35.548Z,1016.83
2019-05-29T05:56:35.615Z,1016.82
2019-05-29T05:57:35.594Z,1016.79
2019-05-29T05:58:35.720Z,1016.88
2019-05-29T05:59:35.752Z,1016.84
2019-05-29T06:00:35.840Z,1016.76
2019-05-29T06:01:35.861Z,1016.79
2019-05-29T06:02:35.915Z,1016.79
2019-05-29T06:03:35.950Z,1016.81
2019-05-29T06:04:35.890Z,1016.78
2019-05-29T06:05:36.104Z,1016.87
2019-05-29T06:06:36.168Z,1016.88
2019-05-29T06:07:36.100Z,1016.94
2019-05-29T06:08:36.158Z,1016.89
2019-05-29T06:09:36.144Z,1016.90
2019-05-29T06:10:36.036Z,1016.96
2019-05-29T06:11:36.102Z,1016.94
2019-05-29T06:12:36.240Z,1016.93
2019-05-29T06:13:36.262Z,1016.96
2019-05-29T06:14:35.331Z,1017.00
2019-05-29T06:15:34.992Z,1017.02
2019-05-29T06:16:34.998Z,1016.98
2019-05-29T06:17:34.974Z,1016.96
2019-05-29T06:18:34.963Z,1016.92
2019-05-29T06:19:35.055Z,1016.93
2019-05-29T06:20:34.957Z,1016.98
2019-05-29T06:21:34.946Z,1016.98
2019-05-29T06:22:34.970Z,1016.98
2019-05-29T06:23:34.918Z,1016.95
2019-05-29T06:24:35.053Z,1016.99
2019-05-29T06:25:36.870Z,1017.03
2019-05-29T06:26:34.936Z,1017.05
2019-05-29T06:27:35.187Z,1017.02
2019-05-29T06:28:35.088Z,1017.04
2019-05-29T06:29:35.217Z,1017.06
2019-05-29T06:30:36.576Z,1017.04
2019-05-29T06:31:35.244Z,1017.03
2019-05-29T06:32:35.351Z,1017.01
2019-05-29T06:33:35.275Z,1017.05
2019-05-29T06:34:35.671Z,1017.02
2019-05-29T06:35:35.870Z,1017.08
2019-05-29T06:36:35.497Z,1017.06
2019-05-29T06:37:35.560Z,1017.08
2019-05-29T06:38:35.606Z,1017.05
2019-05-29T06:39:35.577Z,1017.06
2019-05-29T06:40:36.237Z,1017.06
2019-05-29T06:41:35.628Z,1017.11
2019-05-29T06:42:35.698Z,1017.07
2019-05-29T06:43:35.731Z,1017.13
2019-05-29T06:44:36.384Z,1017.10
2019-05-29T06:45:35.795Z,1017.09
2019-05-29T06:46:36.048Z,1017.15
2019-05-29T06:47:36.273Z,1017.16
2019-05-29T06:48:55.122Z,1017.14
2019-05-29T06:49:35.942Z,1017.13
2019-05-29T06:50:35.296Z,1017.10
2019-05-29T06:51:35.168Z,1017.16
2019-05-29T06:52:35.366Z,1017.17
2019-05-29T06:53:35.674Z,1017.22
2019-05-29T06:54:35.736Z,1017.19
2019-05-29T06:55:35.814Z,1017.17
2019-05-29T06:56:35.543Z,1017.21
2019-05-29T06:57:35.872Z,1017.21
2019-05-29T06:58:35.802Z,1017.23
2019-05-29T06:59:34.521Z,1017.26
2019-05-29T07:00:35.772Z,1017.24
2019-05-29T07:01:35.230Z,1017.25
2019-05-29T07:02:34.485Z,1017.27
2019-05-29T07:03:35.596Z,1017.28
2019-05-29T07:04:34.475Z,1017.27
2019-05-29T07:05:35.561Z,1017.26
2019-05-29T07:06:34.441Z,1017.27
2019-05-29T07:07:35.888Z,1017.29
2019-05-29T07:08:41.586Z,1017.33
2019-05-29T07:09:35.455Z,1017.26
2019-05-29T07:10:34.419Z,1017.27
2019-05-29T07:11:34.412Z,1017.26
2019-05-29T07:12:34.380Z,1017.23
2019-05-29T07:13:35.388Z,1017.27
2019-05-29T07:14:34.442Z,1017.25
2019-05-29T07:15:34.357Z,1017.32
2019-05-29T07:16:45.440Z,1017.30
2019-05-29T07:17:36.301Z,1017.32
2019-05-29T07:18:34.313Z,1017.32
2019-05-29T07:19:47.804Z,1017.37
2019-05-29T07:20:36.464Z,1017.36
2019-05-29T07:21:34.281Z,1017.40
2019-05-29T07:22:34.272Z,1017.38
2019-05-29T07:23:34.301Z,1017.39
2019-05-29T07:24:34.273Z,1017.38
2019-05-29T07:25:34.237Z,1017.38
2019-05-29T07:26:34.225Z,1017.39
2019-05-29T07:27:34.218Z,1017.45
2019-05-29T07:28:34.222Z,1017.42
2019-05-29T07:29:34.214Z,1017.36
2019-05-29T07:30:34.194Z,1017.35
2019-05-29T07:31:34.195Z,1017.37
2019-05-29T07:32:34.189Z,1017.36
2019-05-29T07:33:34.152Z,1017.37
2019-05-29T07:34:49.816Z,1017.35
2019-05-29T07:35:35.132Z,1017.36
2019-05-29T07:36:34.128Z,1017.44
2019-05-29T07:37:34.114Z,1017.46
2019-05-29T07:38:34.098Z,1017.40
2019-05-29T07:39:34.088Z,1017.45
2019-05-29T07:40:35.856Z,1017.48
2019-05-29T07:41:34.065Z,1017.47
2019-05-29T07:42:34.066Z,1017.49
2019-05-29T07:43:34.043Z,1017.48
2019-05-29T07:44:34.039Z,1017.46
2019-05-29T07:45:34.059Z,1017.50
2019-05-29T07:46:34.042Z,1017.46
2019-05-29T07:47:33.999Z,1017.41
2019-05-29T07:48:34.001Z,1017.44
2019-05-29T07:49:38.950Z,1017.48
2019-05-29T07:50:35.010Z,1017.47
2019-05-29T07:51:33.959Z,1017.48
2019-05-29T07:52:33.958Z,1017.49
2019-05-29T07:53:33.944Z,1017.50
2019-05-29T07:54:33.931Z,1017.51
2019-05-29T07:55:33.910Z,1017.53
2019-05-29T07:56:33.931Z,1017.54
2019-05-29T07:57:33.890Z,1017.58
2019-05-29T07:58:33.896Z,1017.52
2019-05-29T07:59:33.882Z,1017.43
2019-05-29T08:00:36.151Z,1017.42
2019-05-29T08:01:34.865Z,1017.46
2019-05-29T08:02:33.836Z,1017.48
2019-05-29T08:03:33.836Z,1017.51
2019-05-29T08:04:33.827Z,1017.44
2019-05-29T08:05:33.815Z,1017.50
2019-05-29T08:06:33.816Z,1017.48
2019-05-29T08:07:33.790Z,1017.49
2019-05-29T08:08:33.782Z,1017.55
2019-05-29T08:09:33.778Z,1017.54
2019-05-29T08:10:33.759Z,1017.55
2019-05-29T08:11:33.763Z,1017.56
2019-05-29T08:12:33.741Z,1017.53
2019-05-29T08:13:33.716Z,1017.54
2019-05-29T08:14:33.710Z,1017.50
2019-05-29T08:15:33.723Z,1017.57
2019-05-29T08:16:33.688Z,1017.55
2019-05-29T08:17:33.682Z,1017.52
2019-05-29T08:18:33.661Z,1017.53
2019-05-29T08:19:33.656Z,1017.55
2019-05-29T08:20:33.639Z,1017.53
2019-05-29T08:21:33.645Z,1017.52
2019-05-29T08:22:34.905Z,1017.52
2019-05-29T08:23:33.611Z,1017.52
2019-05-29T08:24:33.602Z,1017.53
2019-05-29T08:25:33.582Z,1017.57
2019-05-29T08:26:33.592Z,1017.55
2019-05-29T08:27:33.563Z,1017.59
2019-05-29T08:28:33.586Z,1017.61
2019-05-29T08:29:33.548Z,1017.63
2019-05-29T08:30:33.548Z,1017.60
2019-05-29T08:31:33.521Z,1017.65
2019-05-29T08:32:33.528Z,1017.60
2019-05-29T08:33:33.503Z,1017.63
2019-05-29T08:34:33.490Z,1017.59
2019-05-29T08:35:33.506Z,1017.61
2019-05-29T08:36:33.473Z,1017.66
2019-05-29T08:37:33.458Z,1017.62
2019-05-29T08:38:33.464Z,1017.64
2019-05-29T08:39:36.870Z,1017.65
2019-05-29T08:40:33.425Z,1017.59
2019-05-29T08:41:33.450Z,1017.62
2019-05-29T08:42:33.400Z,1017.61
2019-05-29T08:43:33.398Z,1017.62
2019-05-29T08:44:33.380Z,1017.56
2019-05-29T08:45:33.367Z,1017.63
2019-05-29T08:46:33.651Z,1017.62
2019-05-29T08:47:33.351Z,1017.60
2019-05-29T08:48:33.346Z,1017.61
2019-05-29T08:49:33.322Z,1017.62
2019-05-29T08:50:33.319Z,1017.57
2019-05-29T08:51:33.322Z,1017.59
2019-05-29T08:52:33.337Z,1017.62
2019-05-29T08:53:33.315Z,1017.58
2019-05-29T08:54:33.266Z,1017.63
2019-05-29T08:55:33.257Z,1017.62
2019-05-29T08:56:33.277Z,1017.57
2019-05-29T08:57:33.249Z,1017.56
2019-05-29T08:58:33.225Z,1017.59
2019-05-29T08:59:33.217Z,1017.54
2019-05-29T09:00:33.204Z,1017.53
2019-05-29T09:01:33.201Z,1017.53
2019-05-29T09:02:33.203Z,1017.57
2019-05-29T09:03:33.177Z,1017.57
2019-05-29T09:04:33.168Z,1017.55
2019-05-29T09:05:33.150Z,1017.57
2019-05-29T09:06:33.395Z,1017.53
2019-05-29T09:07:33.151Z,1017.43
2019-05-29T09:08:33.116Z,1017.57
2019-05-29T09:09:33.107Z,1017.52
2019-05-29T09:10:33.110Z,1017.49
2019-05-29T09:11:33.128Z,1017.47
2019-05-29T09:12:33.096Z,1017.49
2019-05-29T09:13:33.068Z,1017.47
2019-05-29T09:14:33.059Z,1017.44
2019-05-29T09:15:33.050Z,1017.47
2019-05-29T09:16:33.041Z,1017.42
2019-05-29T09:17:34.533Z,1017.53
2019-05-29T09:18:33.025Z,1017.48
2019-05-29T09:19:33.025Z,1017.45
2019-05-29T09:20:57.838Z,1017.46
2019-05-29T09:21:33.999Z,1017.51
2019-05-29T09:22:32.992Z,1017.46
2019-05-29T09:23:32.953Z,1017.44
2019-05-29T09:24:32.943Z,1017.42
2019-05-29T09:25:32.933Z,1017.49
2019-05-29T09:26:41.806Z,1017.42
2019-05-29T09:27:32.934Z,1017.39
2019-05-29T09:28:32.913Z,1017.43
2019-05-29T09:29:32.897Z,1017.49
2019-05-29T09:30:32.883Z,1017.51
2019-05-29T09:31:32.870Z,1017.47
2019-05-29T09:32:49.685Z,1017.45
2019-05-29T09:33:33.850Z,1017.47
2019-05-29T09:34:32.879Z,1017.52
2019-05-29T09:35:32.828Z,1017.49
2019-05-29T09:36:32.821Z,1017.47
2019-05-29T09:37:32.839Z,1017.46
2019-05-29T09:38:32.800Z,1017.55
2019-05-29T09:39:32.786Z,1017.53
2019-05-29T09:40:32.809Z,1017.53
2019-05-29T09:41:32.768Z,1017.57
2019-05-29T09:42:32.772Z,1017.57
2019-05-29T09:43:32.747Z,1017.52
2019-05-29T09:44:38.880Z,1017.56
2019-05-29T09:45:33.718Z,1017.52
2019-05-29T09:46:32.709Z,1017.49
2019-05-29T09:47:32.722Z,1017.49
2019-05-29T09:48:46.841Z,1017.47
2019-05-29T09:49:33.674Z,1017.45
2019-05-29T09:50:48.789Z,1017.49
2019-05-29T09:51:33.654Z,1017.48
2019-05-29T09:52:32.674Z,1017.48
2019-05-29T09:53:32.649Z,1017.54
2019-05-29T09:54:32.754Z,1017.53
2019-05-29T09:55:32.612Z,1017.62
2019-05-29T09:56:32.624Z,1017.53
2019-05-29T09:57:32.597Z,1017.62
2019-05-29T09:58:32.592Z,1017.59
2019-05-29T09:59:32.567Z,1017.61
2019-05-29T10:00:32.557Z,1017.59
2019-05-29T10:01:32.559Z,1017.60
2019-05-29T10:02:32.568Z,1017.59
2019-05-29T10:03:32.534Z,1017.61
2019-05-29T10:04:32.511Z,1017.64
2019-05-29T10:05:32.513Z,1017.61
2019-05-29T10:06:32.512Z,1017.60
2019-05-29T10:07:32.490Z,1017.61
2019-05-29T10:08:32.473Z,1017.63
2019-05-29T10:09:32.465Z,1017.64
2019-05-29T10:10:32.457Z,1017.71
2019-05-29T10:11:32.459Z,1017.64
2019-05-29T10:12:32.433Z,1017.67
2019-05-29T10:13:32.423Z,1017.66
2019-05-29T10:14:32.409Z,1017.66
2019-05-29T10:15:32.392Z,1017.66
2019-05-29T10:16:32.415Z,1017.60
2019-05-29T10:17:32.385Z,1017.59
2019-05-29T10:18:33.063Z,1017.62
2019-05-29T10:19:32.353Z,1017.60
2019-05-29T10:20:39.964Z,1017.63
2019-05-29T10:21:40.339Z,1017.65
2019-05-29T10:22:39.923Z,1017.63
2019-05-29T10:23:32.361Z,1017.62
2019-05-29T10:24:39.856Z,1017.61
2019-05-29T10:25:32.295Z,1017.60
2019-05-29T10:26:39.866Z,1017.59
2019-05-29T10:27:32.308Z,1017.57
2019-05-29T10:28:55.379Z,1017.61
2019-05-29T10:29:33.290Z,1017.65
2019-05-29T10:30:39.795Z,1017.69
2019-05-29T10:31:32.298Z,1017.60
2019-05-29T10:33:42.445Z,1017.59
2019-05-29T10:35:57.754Z,1017.55
2019-05-29T10:37:05.322Z,1017.58
2019-05-29T10:37:57.741Z,1017.57
2019-05-29T10:39:05.358Z,1017.52
2019-05-29T10:39:57.714Z,1017.53
2019-05-29T10:41:07.461Z,1017.55
2019-05-29T10:41:57.815Z,1017.57
2019-05-29T10:43:05.263Z,1017.52
2019-05-29T10:43:57.673Z,1017.55
2019-05-29T10:45:05.314Z,1017.58
2019-05-29T10:45:57.653Z,1017.52
2019-05-29T10:47:05.229Z,1017.56
2019-05-29T10:47:57.641Z,1017.62
2019-05-29T10:49:05.208Z,1017.53
2019-05-29T10:49:57.615Z,1017.53
2019-05-29T10:51:05.167Z,1017.57
2019-05-29T10:52:12.909Z,1017.56
2019-05-29T10:53:05.183Z,1017.52
2019-05-29T10:53:59.059Z,1017.50
2019-05-29T10:55:05.091Z,1017.42
2019-05-29T10:55:57.545Z,1017.45
2019-05-29T10:57:05.087Z,1017.45
2019-05-29T10:57:57.499Z,1017.48
2019-05-29T10:58:59.929Z,1017.46
2019-05-29T11:00:05.208Z,1017.38
2019-05-29T11:00:57.479Z,1017.46
2019-05-29T11:02:05.035Z,1017.48
2019-05-29T11:02:57.761Z,1017.43
2019-05-29T11:04:05.071Z,1017.41
2019-05-29T11:04:59.514Z,1017.39
2019-05-29T11:05:57.467Z,1017.43
2019-05-29T11:06:57.576Z,1017.44
2019-05-29T11:07:57.411Z,1017.43
2019-05-29T11:08:57.420Z,1017.34
2019-05-29T11:09:57.388Z,1017.38
2019-05-29T11:10:57.349Z,1017.38
2019-05-29T11:11:57.823Z,1017.39
2019-05-29T11:12:57.332Z,1017.41
2019-05-29T11:13:57.361Z,1017.41
2019-05-29T11:14:57.340Z,1017.34
2019-05-29T11:15:57.361Z,1017.34
2019-05-29T11:16:57.664Z,1017.37
2019-05-29T11:17:57.463Z,1017.37
2019-05-29T11:18:57.646Z,1017.39
2019-05-29T11:19:58.287Z,1017.40
2019-05-29T11:20:57.607Z,1017.44
2019-05-29T11:22:01.739Z,1017.43
2019-05-29T11:22:58.235Z,1017.44
2019-05-29T11:23:58.174Z,1017.38
2019-05-29T11:24:58.431Z,1017.36
2019-05-29T11:25:58.282Z,1017.38
2019-05-29T11:26:58.579Z,1017.38
2019-05-29T11:27:58.551Z,1017.40
2019-05-29T11:28:58.609Z,1017.40
2019-05-29T11:30:06.594Z,1017.35
2019-05-29T11:30:57.314Z,1017.36
2019-05-29T11:31:57.229Z,1017.45
2019-05-29T11:33:00.465Z,1017.41
2019-05-29T11:33:57.292Z,1017.34
2019-05-29T11:34:57.550Z,1017.38
2019-05-29T11:36:09.875Z,1017.41
2019-05-29T11:36:58.368Z,1017.32
2019-05-29T11:37:58.720Z,1017.36
2019-05-29T11:39:02.919Z,1017.41
2019-05-29T11:39:58.985Z,1017.38
2019-05-29T11:41:19.405Z,1017.35
2019-05-29T11:41:58.926Z,1017.40
2019-05-29T11:43:00.876Z,1017.38
2019-05-29T11:43:57.150Z,1017.38
2019-05-29T11:44:57.002Z,1017.38
2019-05-29T11:45:57.353Z,1017.29
2019-05-29T11:46:58.208Z,1017.27
2019-05-29T11:47:59.146Z,1017.28
2019-05-29T11:48:57.387Z,1017.30
2019-05-29T11:50:07.618Z,1017.28
2019-05-29T11:50:58.295Z,1017.40
2019-05-29T11:52:18.698Z,1017.35
2019-05-29T11:52:58.544Z,1017.30
2019-05-29T11:53:57.538Z,1017.34
2019-05-29T11:54:59.994Z,1017.34
2019-05-29T11:55:58.028Z,1017.36
2019-05-29T11:56:57.435Z,1017.36
2019-05-29T11:57:57.958Z,1017.40
2019-05-29T11:58:57.191Z,1017.38
2019-05-29T12:00:00.176Z,1017.31
2019-05-29T12:00:59.132Z,1017.31
2019-05-29T12:01:57.371Z,1017.29
2019-05-29T12:02:57.732Z,1017.32
2019-05-29T12:04:13.626Z,1017.29
2019-05-29T12:05:01.161Z,1017.32
2019-05-29T12:07:06.615Z,1017.34
2019-05-29T12:09:31.445Z,1017.33
2019-05-29T12:10:17.428Z,1017.36
2019-05-29T12:11:16.286Z,1017.31